Terminal Aerodrome Forecast
Issued by NWS

Home | Current Version | Previous Version | Text Only | Print | Product List | Glossary On
Versions: 1 2 3 4 5 6 7 8 9 10 11 12
000
FTUS44 KTSA 221136
TAFFYV
TAF
KFYV 221136Z 2212/2312 23005KT P6SM VCTS SCT050CB BKN250
      TEMPO 2214/2217 3SM TSRA SCT012 BKN040CB
     FM221800 25008KT P6SM SCT050 BKN150
     FM222100 29006KT P6SM VCTS BKN050CB
     FM230300 35005KT P6SM BKN250=

USA.gov is the U.S. government's official web portal to all federal, state and local government web resources and services.